sensor_id;sensor_type;location;lat;lon;timestamp;temperature;humidity
8643;DHT22;4359;49.358;11.256;2023-11-18T00:01:51;2.40;99.90
8643;DHT22;4359;49.358;11.256;2023-11-18T00:04:17;2.40;99.90
8643;DHT22;4359;49.358;11.256;2023-11-18T00:06:42;2.40;99.90
8643;DHT22;4359;49.358;11.256;2023-11-18T00:09:11;2.40;99.90
8643;DHT22;4359;49.358;11.256;2023-11-18T00:11:40;2.40;99.90
8643;DHT22;4359;49.358;11.256;2023-11-18T00:14:06;2.40;99.90
8643;DHT22;4359;49.358;11.256;2023-11-18T00:16:31;2.40;99.90
8643;DHT22;4359;49.358;11.256;2023-11-18T00:18:57;2.50;99.90
8643;DHT22;4359;49.358;11.256;2023-11-18T00:21:24;2.50;99.90
8643;DHT22;4359;49.358;11.256;2023-11-18T00:23:50;2.50;99.90
8643;DHT22;4359;49.358;11.256;2023-11-18T00:26:16;2.50;99.90
8643;DHT22;4359;49.358;11.256;2023-11-18T00:28:41;2.50;99.90
8643;DHT22;4359;49.358;11.256;2023-11-18T00:31:07;2.50;99.90
8643;DHT22;4359;49.358;11.256;2023-11-18T00:33:32;2.50;99.90
8643;DHT22;4359;49.358;11.256;2023-11-18T00:35:58;2.50;99.90
8643;DHT22;4359;49.358;11.256;2023-11-18T00:38:25;2.50;99.90
8643;DHT22;4359;49.358;11.256;2023-11-18T00:40:51;2.50;99.90
8643;DHT22;4359;49.358;11.256;2023-11-18T00:43:16;2.50;99.90
8643;DHT22;4359;49.358;11.256;2023-11-18T00:45:43;2.50;99.90
8643;DHT22;4359;49.358;11.256;2023-11-18T00:48:09;2.60;99.90
8643;DHT22;4359;49.358;11.256;2023-11-18T00:50:35;2.60;99.90
8643;DHT22;4359;49.358;11.256;2023-11-18T00:53:00;2.60;99.90
8643;DHT22;4359;49.358;11.256;2023-11-18T00:55:26;2.60;99.90
8643;DHT22;4359;49.358;11.256;2023-11-18T00:57:51;2.60;99.90
8643;DHT22;4359;49.358;11.256;2023-11-18T01:00:17;2.60;99.90
8643;DHT22;4359;49.358;11.256;2023-11-18T01:02:47;2.70;99.90
8643;DHT22;4359;49.358;11.256;2023-11-18T01:05:14;2.70;99.90
8643;DHT22;4359;49.358;11.256;2023-11-18T01:07:40;2.70;99.90
8643;DHT22;4359;49.358;11.256;2023-11-18T01:10:06;2.70;99.90
8643;DHT22;4359;49.358;11.256;2023-11-18T01:12:32;2.70;99.90
8643;DHT22;4359;49.358;11.256;2023-11-18T01:14:58;2.70;99.90
8643;DHT22;4359;49.358;11.256;2023-11-18T01:17:23;2.70;99.90
8643;DHT22;4359;49.358;11.256;2023-11-18T01:19:49;2.70;99.90
8643;DHT22;4359;49.358;11.256;2023-11-18T01:22:15;2.80;99.90
8643;DHT22;4359;49.358;11.256;2023-11-18T01:24:40;2.80;99.90
8643;DHT22;4359;49.358;11.256;2023-11-18T01:27:06;2.80;99.90
8643;DHT22;4359;49.358;11.256;2023-11-18T01:29:35;2.90;99.90
8643;DHT22;4359;49.358;11.256;2023-11-18T01:32:01;2.90;99.90
8643;DHT22;4359;49.358;11.256;2023-11-18T01:34:34;2.90;99.90
8643;DHT22;4359;49.358;11.256;2023-11-18T01:36:59;2.90;99.90
8643;DHT22;4359;49.358;11.256;2023-11-18T01:39:25;2.80;99.90
8643;DHT22;4359;49.358;11.256;2023-11-18T01:41:51;2.80;99.90
8643;DHT22;4359;49.358;11.256;2023-11-18T01:44:17;2.70;99.90
8643;DHT22;4359;49.358;11.256;2023-11-18T01:46:45;2.70;99.90
8643;DHT22;4359;49.358;11.256;2023-11-18T01:49:14;2.60;99.90
8643;DHT22;4359;49.358;11.256;2023-11-18T01:51:40;2.50;99.90
8643;DHT22;4359;49.358;11.256;2023-11-18T01:54:06;2.60;99.90
8643;DHT22;4359;49.358;11.256;2023-11-18T01:56:32;2.50;99.90
8643;DHT22;4359;49.358;11.256;2023-11-18T01:58:58;2.40;99.90
8643;DHT22;4359;49.358;11.256;2023-11-18T02:01:25;2.30;99.90
8643;DHT22;4359;49.358;11.256;2023-11-18T02:03:52;2.30;99.90
8643;DHT22;4359;49.358;11.256;2023-11-18T02:06:17;2.20;99.90
8643;DHT22;4359;49.358;11.256;2023-11-18T02:08:43;2.10;99.90
8643;DHT22;4359;49.358;11.256;2023-11-18T02:13:37;1.90;99.90
8643;DHT22;4359;49.358;11.256;2023-11-18T02:16:04;1.90;99.90
8643;DHT22;4359;49.358;11.256;2023-11-18T02:18:32;1.80;99.90
8643;DHT22;4359;49.358;11.256;2023-11-18T02:20:59;1.90;99.90
8643;DHT22;4359;49.358;11.256;2023-11-18T02:23:25;1.80;99.90
8643;DHT22;4359;49.358;11.256;2023-11-18T02:25:52;1.80;99.90
8643;DHT22;4359;49.358;11.256;2023-11-18T02:28:18;1.70;99.90
8643;DHT22;4359;49.358;11.256;2023-11-18T02:30:43;1.70;99.90
8643;DHT22;4359;49.358;11.256;2023-11-18T02:33:24;1.70;99.90
8643;DHT22;4359;49.358;11.256;2023-11-18T02:35:58;1.70;99.90
8643;DHT22;4359;49.358;11.256;2023-11-18T02:38:31;1.70;99.90
8643;DHT22;4359;49.358;11.256;2023-11-18T02:41:02;1.70;99.90
8643;DHT22;4359;49.358;11.256;2023-11-18T02:43:30;1.70;99.90
8643;DHT22;4359;49.358;11.256;2023-11-18T02:45:56;1.70;99.90
8643;DHT22;4359;49.358;11.256;2023-11-18T02:48:22;1.70;99.90
8643;DHT22;4359;49.358;11.256;2023-11-18T02:50:49;1.60;99.90
8643;DHT22;4359;49.358;11.256;2023-11-18T02:53:14;1.50;99.90
8643;DHT22;4359;49.358;11.256;2023-11-18T02:55:40;1.50;99.90
8643;DHT22;4359;49.358;11.256;2023-11-18T02:58:06;1.50;99.90
8643;DHT22;4359;49.358;11.256;2023-11-18T03:00:35;1.50;99.90
8643;DHT22;4359;49.358;11.256;2023-11-18T03:03:01;1.40;99.90
8643;DHT22;4359;49.358;11.256;2023-11-18T03:05:28;1.40;99.90
8643;DHT22;4359;49.358;11.256;2023-11-18T03:07:53;1.40;99.90
8643;DHT22;4359;49.358;11.256;2023-11-18T03:10:23;1.40;99.90
8643;DHT22;4359;49.358;11.256;2023-11-18T03:12:49;1.30;99.90
8643;DHT22;4359;49.358;11.256;2023-11-18T03:15:15;1.20;99.90
8643;DHT22;4359;49.358;11.256;2023-11-18T03:17:46;1.20;99.90
8643;DHT22;4359;49.358;11.256;2023-11-18T03:20:14;1.30;99.90
8643;DHT22;4359;49.358;11.256;2023-11-18T03:22:51;1.40;99.90
8643;DHT22;4359;49.358;11.256;2023-11-18T03:25:17;1.40;99.90
8643;DHT22;4359;49.358;11.256;2023-11-18T03:27:43;1.40;99.90
8643;DHT22;4359;49.358;11.256;2023-11-18T03:30:09;1.40;99.90
8643;DHT22;4359;49.358;11.256;2023-11-18T03:32:35;1.40;99.90
8643;DHT22;4359;49.358;11.256;2023-11-18T03:35:02;1.40;99.90
8643;DHT22;4359;49.358;11.256;2023-11-18T03:37:28;1.40;99.90
8643;DHT22;4359;49.358;11.256;2023-11-18T03:39:53;1.40;99.90
8643;DHT22;4359;49.358;11.256;2023-11-18T03:42:19;1.40;99.90
8643;DHT22;4359;49.358;11.256;2023-11-18T03:44:44;1.40;99.90
8643;DHT22;4359;49.358;11.256;2023-11-18T03:47:13;1.40;99.90
8643;DHT22;4359;49.358;11.256;2023-11-18T03:49:39;1.30;99.90
8643;DHT22;4359;49.358;11.256;2023-11-18T03:52:05;1.30;99.90
8643;DHT22;4359;49.358;11.256;2023-11-18T03:54:31;1.30;99.90
8643;DHT22;4359;49.358;11.256;2023-11-18T03:56:56;1.40;99.90
8643;DHT22;4359;49.358;11.256;2023-11-18T03:59:22;1.50;99.90
8643;DHT22;4359;49.358;11.256;2023-11-18T04:01:48;1.50;99.90
8643;DHT22;4359;49.358;11.256;2023-11-18T04:04:16;1.70;99.90
8643;DHT22;4359;49.358;11.256;2023-11-18T04:06:42;1.70;99.90
8643;DHT22;4359;49.358;11.256;2023-11-18T04:09:07;1.70;99.90
8643;DHT22;4359;49.358;11.256;2023-11-18T04:11:35;1.70;99.90
8643;DHT22;4359;49.358;11.256;2023-11-18T04:14:00;1.70;99.90
8643;DHT22;4359;49.358;11.256;2023-11-18T04:16:26;1.70;99.90
8643;DHT22;4359;49.358;11.256;2023-11-18T04:18:51;1.70;99.90
8643;DHT22;4359;49.358;11.256;2023-11-18T04:21:17;1.70;99.90
8643;DHT22;4359;49.358;11.256;2023-11-18T04:23:43;1.80;99.90
8643;DHT22;4359;49.358;11.256;2023-11-18T04:26:11;1.90;99.90
8643;DHT22;4359;49.358;11.256;2023-11-18T04:28:37;1.90;99.90
8643;DHT22;4359;49.358;11.256;2023-11-18T04:31:03;1.90;99.90
8643;DHT22;4359;49.358;11.256;2023-11-18T04:33:30;1.90;99.90
8643;DHT22;4359;49.358;11.256;2023-11-18T04:35:55;1.80;99.90
8643;DHT22;4359;49.358;11.256;2023-11-18T04:38:24;1.90;99.90
8643;DHT22;4359;49.358;11.256;2023-11-18T04:40:53;1.80;99.90
8643;DHT22;4359;49.358;11.256;2023-11-18T04:43:22;1.70;99.90
8643;DHT22;4359;49.358;11.256;2023-11-18T04:45:49;1.70;99.90
8643;DHT22;4359;49.358;11.256;2023-11-18T04:48:14;1.60;99.90
8643;DHT22;4359;49.358;11.256;2023-11-18T04:50:41;1.60;99.90
8643;DHT22;4359;49.358;11.256;2023-11-18T04:53:06;1.60;99.90
8643;DHT22;4359;49.358;11.256;2023-11-18T04:55:34;1.60;99.90
8643;DHT22;4359;49.358;11.256;2023-11-18T04:58:00;1.60;99.90
8643;DHT22;4359;49.358;11.256;2023-11-18T05:00:25;1.60;99.90
8643;DHT22;4359;49.358;11.256;2023-11-18T05:02:51;1.60;99.90
8643;DHT22;4359;49.358;11.256;2023-11-18T05:05:17;1.50;99.90
8643;DHT22;4359;49.358;11.256;2023-11-18T05:07:42;1.50;99.90
8643;DHT22;4359;49.358;11.256;2023-11-18T05:10:08;1.40;99.90
8643;DHT22;4359;49.358;11.256;2023-11-18T05:12:38;1.30;99.90
8643;DHT22;4359;49.358;11.256;2023-11-18T05:15:05;1.30;99.90
8643;DHT22;4359;49.358;11.256;2023-11-18T05:17:36;1.30;99.90
8643;DHT22;4359;49.358;11.256;2023-11-18T05:20:05;1.20;99.90
8643;DHT22;4359;49.358;11.256;2023-11-18T05:22:34;1.20;99.90
8643;DHT22;4359;49.358;11.256;2023-11-18T05:24:59;1.20;99.90
8643;DHT22;4359;49.358;11.256;2023-11-18T05:27:25;1.30;99.90
8643;DHT22;4359;49.358;11.256;2023-11-18T05:29:52;1.20;99.90
8643;DHT22;4359;49.358;11.256;2023-11-18T05:32:20;1.30;99.90
8643;DHT22;4359;49.358;11.256;2023-11-18T05:34:46;1.30;99.90
8643;DHT22;4359;49.358;11.256;2023-11-18T05:37:11;1.40;99.90
8643;DHT22;4359;49.358;11.256;2023-11-18T05:39:37;1.40;99.90
8643;DHT22;4359;49.358;11.256;2023-11-18T05:42:08;1.50;99.90
8643;DHT22;4359;49.358;11.256;2023-11-18T05:44:36;1.50;99.90
8643;DHT22;4359;49.358;11.256;2023-11-18T05:47:03;1.40;99.90
8643;DHT22;4359;49.358;11.256;2023-11-18T05:49:28;1.40;99.90
8643;DHT22;4359;49.358;11.256;2023-11-18T05:51:54;1.40;99.90
8643;DHT22;4359;49.358;11.256;2023-11-18T05:54:19;1.30;99.90
8643;DHT22;4359;49.358;11.256;2023-11-18T05:56:45;1.30;99.90
8643;DHT22;4359;49.358;11.256;2023-11-18T05:59:10;1.30;99.90
8643;DHT22;4359;49.358;11.256;2023-11-18T06:01:36;1.30;99.90
8643;DHT22;4359;49.358;11.256;2023-11-18T06:04:02;1.30;99.90
8643;DHT22;4359;49.358;11.256;2023-11-18T06:06:28;1.30;99.90
8643;DHT22;4359;49.358;11.256;2023-11-18T06:08:54;1.30;99.90
8643;DHT22;4359;49.358;11.256;2023-11-18T06:11:20;1.30;99.90
8643;DHT22;4359;49.358;11.256;2023-11-18T06:13:46;1.30;99.90
8643;DHT22;4359;49.358;11.256;2023-11-18T06:16:13;1.30;99.90
8643;DHT22;4359;49.358;11.256;2023-11-18T06:18:43;1.30;99.90
8643;DHT22;4359;49.358;11.256;2023-11-18T06:21:16;1.20;99.90
8643;DHT22;4359;49.358;11.256;2023-11-18T06:23:42;1.20;99.90
8643;DHT22;4359;49.358;11.256;2023-11-18T06:26:07;1.30;99.90
8643;DHT22;4359;49.358;11.256;2023-11-18T06:28:36;1.20;99.90
8643;DHT22;4359;49.358;11.256;2023-11-18T06:31:01;1.20;99.90
8643;DHT22;4359;49.358;11.256;2023-11-18T06:33:27;1.30;99.90
8643;DHT22;4359;49.358;11.256;2023-11-18T06:35:53;1.30;99.90
8643;DHT22;4359;49.358;11.256;2023-11-18T06:38:20;1.30;99.90
8643;DHT22;4359;49.358;11.256;2023-11-18T06:40:45;1.30;99.90
8643;DHT22;4359;49.358;11.256;2023-11-18T06:43:11;1.30;99.90
8643;DHT22;4359;49.358;11.256;2023-11-18T06:45:37;1.40;99.90
8643;DHT22;4359;49.358;11.256;2023-11-18T06:48:07;1.40;99.90
8643;DHT22;4359;49.358;11.256;2023-11-18T06:50:32;1.50;99.90
8643;DHT22;4359;49.358;11.256;2023-11-18T06:52:59;1.50;99.90
8643;DHT22;4359;49.358;11.256;2023-11-18T06:55:25;1.50;99.90
8643;DHT22;4359;49.358;11.256;2023-11-18T06:57:52;1.60;99.90
8643;DHT22;4359;49.358;11.256;2023-11-18T07:00:19;1.80;99.90
8643;DHT22;4359;49.358;11.256;2023-11-18T07:02:47;1.70;99.90
8643;DHT22;4359;49.358;11.256;2023-11-18T07:05:12;1.70;99.90
8643;DHT22;4359;49.358;11.256;2023-11-18T07:07:40;1.80;99.90
8643;DHT22;4359;49.358;11.256;2023-11-18T07:10:06;1.70;99.90
8643;DHT22;4359;49.358;11.256;2023-11-18T07:12:32;1.80;99.90
8643;DHT22;4359;49.358;11.256;2023-11-18T07:14:59;1.90;99.90
8643;DHT22;4359;49.358;11.256;2023-11-18T07:17:26;2.10;99.90
8643;DHT22;4359;49.358;11.256;2023-11-18T07:19:51;2.10;99.90
8643;DHT22;4359;49.358;11.256;2023-11-18T07:22:17;2.20;99.90
8643;DHT22;4359;49.358;11.256;2023-11-18T07:24:42;2.30;99.90
8643;DHT22;4359;49.358;11.256;2023-11-18T07:27:08;2.40;99.90
8643;DHT22;4359;49.358;11.256;2023-11-18T07:29:36;2.50;99.90
8643;DHT22;4359;49.358;11.256;2023-11-18T07:32:02;2.60;99.90
8643;DHT22;4359;49.358;11.256;2023-11-18T07:34:31;2.70;99.90
8643;DHT22;4359;49.358;11.256;2023-11-18T07:36:58;2.80;99.90
8643;DHT22;4359;49.358;11.256;2023-11-18T07:39:24;2.80;99.90
8643;DHT22;4359;49.358;11.256;2023-11-18T07:42:12;2.90;99.90
8643;DHT22;4359;49.358;11.256;2023-11-18T07:44:38;2.80;99.90
8643;DHT22;4359;49.358;11.256;2023-11-18T07:47:06;3.00;99.90
8643;DHT22;4359;49.358;11.256;2023-11-18T07:49:34;3.00;99.90
8643;DHT22;4359;49.358;11.256;2023-11-18T07:52:03;3.00;99.90
8643;DHT22;4359;49.358;11.256;2023-11-18T07:54:29;3.10;99.90
8643;DHT22;4359;49.358;11.256;2023-11-18T07:56:55;3.20;99.90
8643;DHT22;4359;49.358;11.256;2023-11-18T07:59:20;3.30;99.90
8643;DHT22;4359;49.358;11.256;2023-11-18T08:01:47;3.30;99.90
8643;DHT22;4359;49.358;11.256;2023-11-18T08:04:12;3.40;99.90
8643;DHT22;4359;49.358;11.256;2023-11-18T08:06:42;3.30;99.90
8643;DHT22;4359;49.358;11.256;2023-11-18T08:09:09;3.50;99.90
8643;DHT22;4359;49.358;11.256;2023-11-18T08:11:39;3.70;99.90
8643;DHT22;4359;49.358;11.256;2023-11-18T08:14:09;3.80;99.90
8643;DHT22;4359;49.358;11.256;2023-11-18T08:16:35;4.00;99.90
8643;DHT22;4359;49.358;11.256;2023-11-18T08:19:01;4.10;99.90
8643;DHT22;4359;49.358;11.256;2023-11-18T08:21:33;4.10;99.90
8643;DHT22;4359;49.358;11.256;2023-11-18T08:23:59;4.10;99.90
8643;DHT22;4359;49.358;11.256;2023-11-18T08:26:25;4.20;99.90
8643;DHT22;4359;49.358;11.256;2023-11-18T08:28:51;4.20;99.90
8643;DHT22;4359;49.358;11.256;2023-11-18T08:31:17;4.40;99.90
8643;DHT22;4359;49.358;11.256;2023-11-18T08:33:42;4.30;99.90
8643;DHT22;4359;49.358;11.256;2023-11-18T08:36:09;4.40;99.90
8643;DHT22;4359;49.358;11.256;2023-11-18T08:38:34;4.40;99.90
8643;DHT22;4359;49.358;11.256;2023-11-18T08:41:01;4.30;99.90
8643;DHT22;4359;49.358;11.256;2023-11-18T08:43:26;4.40;99.90
8643;DHT22;4359;49.358;11.256;2023-11-18T08:45:54;4.40;99.90
8643;DHT22;4359;49.358;11.256;2023-11-18T08:48:21;4.30;99.90
8643;DHT22;4359;49.358;11.256;2023-11-18T08:50:48;4.30;99.90
8643;DHT22;4359;49.358;11.256;2023-11-18T08:53:14;4.40;99.90
8643;DHT22;4359;49.358;11.256;2023-11-18T08:55:44;4.40;99.90
8643;DHT22;4359;49.358;11.256;2023-11-18T08:58:22;4.40;99.90
8643;DHT22;4359;49.358;11.256;2023-11-18T09:00:51;4.60;99.90
8643;DHT22;4359;49.358;11.256;2023-11-18T09:03:23;4.60;99.90
8643;DHT22;4359;49.358;11.256;2023-11-18T09:06:09;4.60;99.90
8643;DHT22;4359;49.358;11.256;2023-11-18T09:08:45;4.80;99.90
8643;DHT22;4359;49.358;11.256;2023-11-18T09:11:11;4.90;99.90
8643;DHT22;4359;49.358;11.256;2023-11-18T09:13:43;5.00;99.90
8643;DHT22;4359;49.358;11.256;2023-11-18T09:16:10;5.00;99.90
8643;DHT22;4359;49.358;11.256;2023-11-18T09:18:40;5.20;99.90
8643;DHT22;4359;49.358;11.256;2023-11-18T09:21:06;5.40;99.90
8643;DHT22;4359;49.358;11.256;2023-11-18T09:23:33;5.70;99.90
8643;DHT22;4359;49.358;11.256;2023-11-18T09:26:03;5.80;99.90
8643;DHT22;4359;49.358;11.256;2023-11-18T09:28:33;6.00;99.90
8643;DHT22;4359;49.358;11.256;2023-11-18T09:31:03;6.20;99.90
8643;DHT22;4359;49.358;11.256;2023-11-18T09:33:30;6.50;99.90
8643;DHT22;4359;49.358;11.256;2023-11-18T09:36:02;6.60;99.90
8643;DHT22;4359;49.358;11.256;2023-11-18T09:38:29;6.60;99.90
8643;DHT22;4359;49.358;11.256;2023-11-18T09:40:56;6.80;99.90
8643;DHT22;4359;49.358;11.256;2023-11-18T09:43:22;6.70;99.90
8643;DHT22;4359;49.358;11.256;2023-11-18T09:45:49;6.70;99.90
8643;DHT22;4359;49.358;11.256;2023-11-18T09:48:17;6.70;99.90
8643;DHT22;4359;49.358;11.256;2023-11-18T09:50:45;6.60;99.90
8643;DHT22;4359;49.358;11.256;2023-11-18T09:53:14;6.60;99.90
8643;DHT22;4359;49.358;11.256;2023-11-18T09:56:00;6.60;99.90
8643;DHT22;4359;49.358;11.256;2023-11-18T09:58:31;6.70;99.90
8643;DHT22;4359;49.358;11.256;2023-11-18T10:01:01;6.80;99.90
8643;DHT22;4359;49.358;11.256;2023-11-18T10:03:28;6.90;99.90
8643;DHT22;4359;49.358;11.256;2023-11-18T10:05:54;6.90;99.90
8643;DHT22;4359;49.358;11.256;2023-11-18T10:08:21;7.10;99.90
8643;DHT22;4359;49.358;11.256;2023-11-18T10:10:51;7.20;99.90
8643;DHT22;4359;49.358;11.256;2023-11-18T10:13:17;7.20;99.90
8643;DHT22;4359;49.358;11.256;2023-11-18T10:15:49;7.30;99.90
8643;DHT22;4359;49.358;11.256;2023-11-18T10:18:17;7.50;99.90
8643;DHT22;4359;49.358;11.256;2023-11-18T10:20:48;7.50;99.90
8643;DHT22;4359;49.358;11.256;2023-11-18T10:23:19;7.70;99.90
8643;DHT22;4359;49.358;11.256;2023-11-18T10:25:51;7.90;99.90
8643;DHT22;4359;49.358;11.256;2023-11-18T10:28:28;8.10;99.90
8643;DHT22;4359;49.358;11.256;2023-11-18T10:30:55;8.40;99.90
8643;DHT22;4359;49.358;11.256;2023-11-18T10:33:24;8.70;99.90
8643;DHT22;4359;49.358;11.256;2023-11-18T10:35:55;8.60;99.90
8643;DHT22;4359;49.358;11.256;2023-11-18T10:38:22;8.40;99.90
8643;DHT22;4359;49.358;11.256;2023-11-18T10:40:58;8.10;99.90
8643;DHT22;4359;49.358;11.256;2023-11-18T10:43:24;8.00;99.90
8643;DHT22;4359;49.358;11.256;2023-11-18T10:46:08;8.10;99.90
8643;DHT22;4359;49.358;11.256;2023-11-18T10:51:08;7.60;99.90
8643;DHT22;4359;49.358;11.256;2023-11-18T10:53:35;7.60;99.90
8643;DHT22;4359;49.358;11.256;2023-11-18T10:56:04;7.40;99.90
8643;DHT22;4359;49.358;11.256;2023-11-18T10:58:36;7.30;99.90
8643;DHT22;4359;49.358;11.256;2023-11-18T11:01:06;7.30;99.90
8643;DHT22;4359;49.358;11.256;2023-11-18T11:03:52;7.20;99.90
8643;DHT22;4359;49.358;11.256;2023-11-18T11:06:19;7.30;99.90
8643;DHT22;4359;49.358;11.256;2023-11-18T11:08:45;7.40;99.90
8643;DHT22;4359;49.358;11.256;2023-11-18T11:11:11;7.40;99.90
8643;DHT22;4359;49.358;11.256;2023-11-18T11:13:41;7.30;99.90
8643;DHT22;4359;49.358;11.256;2023-11-18T11:16:08;7.50;99.90
8643;DHT22;4359;49.358;11.256;2023-11-18T11:18:37;7.50;99.90
8643;DHT22;4359;49.358;11.256;2023-11-18T11:21:07;7.50;99.90
8643;DHT22;4359;49.358;11.256;2023-11-18T11:23:49;7.70;99.90
8643;DHT22;4359;49.358;11.256;2023-11-18T11:29:28;8.30;99.90
8643;DHT22;4359;49.358;11.256;2023-11-18T11:32:18;8.40;99.90
8643;DHT22;4359;49.358;11.256;2023-11-18T11:34:54;8.50;99.90
8643;DHT22;4359;49.358;11.256;2023-11-18T11:37:25;8.20;99.90
8643;DHT22;4359;49.358;11.256;2023-11-18T11:39:51;8.20;99.90
8643;DHT22;4359;49.358;11.256;2023-11-18T11:42:19;7.90;99.90
8643;DHT22;4359;49.358;11.256;2023-11-18T11:44:46;8.10;99.90
8643;DHT22;4359;49.358;11.256;2023-11-18T11:47:12;8.30;99.90
8643;DHT22;4359;49.358;11.256;2023-11-18T11:49:50;8.20;99.90
8643;DHT22;4359;49.358;11.256;2023-11-18T11:52:27;8.20;99.90
8643;DHT22;4359;49.358;11.256;2023-11-18T11:55:00;8.20;99.90
8643;DHT22;4359;49.358;11.256;2023-11-18T11:57:28;8.50;99.90
8643;DHT22;4359;49.358;11.256;2023-11-18T11:59:54;8.50;99.90
8643;DHT22;4359;49.358;11.256;2023-11-18T12:02:20;8.40;99.90
8643;DHT22;4359;49.358;11.256;2023-11-18T12:04:50;8.60;99.90
8643;DHT22;4359;49.358;11.256;2023-11-18T12:07:22;8.90;99.90
8643;DHT22;4359;49.358;11.256;2023-11-18T12:09:54;9.00;99.90
8643;DHT22;4359;49.358;11.256;2023-11-18T12:12:23;8.90;99.90
8643;DHT22;4359;49.358;11.256;2023-11-18T12:17:31;9.10;99.90
8643;DHT22;4359;49.358;11.256;2023-11-18T12:23:05;9.40;99.90
8643;DHT22;4359;49.358;11.256;2023-11-18T12:25:40;9.50;99.90
8643;DHT22;4359;49.358;11.256;2023-11-18T12:28:10;9.60;99.90
8643;DHT22;4359;49.358;11.256;2023-11-18T12:30:39;9.70;99.90
8643;DHT22;4359;49.358;11.256;2023-11-18T12:33:09;9.90;99.90
8643;DHT22;4359;49.358;11.256;2023-11-18T12:35:38;9.90;99.90
8643;DHT22;4359;49.358;11.256;2023-11-18T12:43:16;9.60;99.90
8643;DHT22;4359;49.358;11.256;2023-11-18T12:46:06;9.50;99.90
8643;DHT22;4359;49.358;11.256;2023-11-18T12:48:42;9.40;99.90
8643;DHT22;4359;49.358;11.256;2023-11-18T12:51:09;9.50;99.90
8643;DHT22;4359;49.358;11.256;2023-11-18T12:53:47;9.50;99.90
8643;DHT22;4359;49.358;11.256;2023-11-18T12:56:15;9.50;99.90
8643;DHT22;4359;49.358;11.256;2023-11-18T12:58:40;9.30;99.90
8643;DHT22;4359;49.358;11.256;2023-11-18T13:01:06;9.30;99.90
8643;DHT22;4359;49.358;11.256;2023-11-18T13:03:31;9.20;99.90
8643;DHT22;4359;49.358;11.256;2023-11-18T13:05:59;9.30;99.90
8643;DHT22;4359;49.358;11.256;2023-11-18T13:08:25;9.20;99.90
8643;DHT22;4359;49.358;11.256;2023-11-18T13:10:52;9.20;99.90
8643;DHT22;4359;49.358;11.256;2023-11-18T13:13:17;9.30;99.90
8643;DHT22;4359;49.358;11.256;2023-11-18T13:15:46;9.00;99.90
8643;DHT22;4359;49.358;11.256;2023-11-18T13:18:11;9.00;99.90
8643;DHT22;4359;49.358;11.256;2023-11-18T13:20:37;8.90;99.90
8643;DHT22;4359;49.358;11.256;2023-11-18T13:23:04;8.80;99.90
8643;DHT22;4359;49.358;11.256;2023-11-18T13:25:34;8.70;99.90
8643;DHT22;4359;49.358;11.256;2023-11-18T13:28:00;8.40;99.90
8643;DHT22;4359;49.358;11.256;2023-11-18T13:30:27;8.30;99.90
8643;DHT22;4359;49.358;11.256;2023-11-18T13:32:54;8.30;99.90
8643;DHT22;4359;49.358;11.256;2023-11-18T13:35:20;8.30;99.90
8643;DHT22;4359;49.358;11.256;2023-11-18T13:37:49;8.20;99.90
8643;DHT22;4359;49.358;11.256;2023-11-18T13:40:15;8.20;99.90
8643;DHT22;4359;49.358;11.256;2023-11-18T13:42:43;8.00;99.90
8643;DHT22;4359;49.358;11.256;2023-11-18T13:45:12;7.90;99.90
8643;DHT22;4359;49.358;11.256;2023-11-18T13:47:41;8.00;99.90
8643;DHT22;4359;49.358;11.256;2023-11-18T13:50:08;8.00;99.90
8643;DHT22;4359;49.358;11.256;2023-11-18T13:52:34;8.10;99.90
8643;DHT22;4359;49.358;11.256;2023-11-18T13:55:00;8.10;99.90
8643;DHT22;4359;49.358;11.256;2023-11-18T13:57:25;8.10;99.90
8643;DHT22;4359;49.358;11.256;2023-11-18T13:59:51;8.10;99.90
8643;DHT22;4359;49.358;11.256;2023-11-18T14:02:17;8.10;99.90
8643;DHT22;4359;49.358;11.256;2023-11-18T14:04:43;8.00;99.90
8643;DHT22;4359;49.358;11.256;2023-11-18T14:07:09;7.90;99.90
8643;DHT22;4359;49.358;11.256;2023-11-18T14:09:35;7.80;99.90
8643;DHT22;4359;49.358;11.256;2023-11-18T14:12:02;7.80;99.90
8643;DHT22;4359;49.358;11.256;2023-11-18T14:14:28;7.70;99.90
8643;DHT22;4359;49.358;11.256;2023-11-18T14:16:54;7.70;99.90
8643;DHT22;4359;49.358;11.256;2023-11-18T14:19:23;7.60;99.90
8643;DHT22;4359;49.358;11.256;2023-11-18T14:21:50;7.50;99.90
8643;DHT22;4359;49.358;11.256;2023-11-18T14:24:16;7.50;99.90
8643;DHT22;4359;49.358;11.256;2023-11-18T14:26:45;7.40;99.90
8643;DHT22;4359;49.358;11.256;2023-11-18T14:29:12;7.30;99.90
8643;DHT22;4359;49.358;11.256;2023-11-18T14:31:37;7.30;99.90
8643;DHT22;4359;49.358;11.256;2023-11-18T14:34:03;7.20;99.90
8643;DHT22;4359;49.358;11.256;2023-11-18T14:36:29;7.10;99.90
8643;DHT22;4359;49.358;11.256;2023-11-18T14:38:55;7.10;99.90
8643;DHT22;4359;49.358;11.256;2023-11-18T14:41:21;7.00;99.90
8643;DHT22;4359;49.358;11.256;2023-11-18T14:43:50;6.90;99.90
8643;DHT22;4359;49.358;11.256;2023-11-18T14:46:16;6.80;99.90
8643;DHT22;4359;49.358;11.256;2023-11-18T14:48:41;6.70;99.90
8643;DHT22;4359;49.358;11.256;2023-11-18T14:51:07;6.60;99.90
8643;DHT22;4359;49.358;11.256;2023-11-18T14:53:33;6.50;99.90
8643;DHT22;4359;49.358;11.256;2023-11-18T14:55:59;6.40;99.90
8643;DHT22;4359;49.358;11.256;2023-11-18T14:58:25;6.30;99.90
8643;DHT22;4359;49.358;11.256;2023-11-18T15:00:51;6.30;99.90
8643;DHT22;4359;49.358;11.256;2023-11-18T15:03:17;6.20;99.90
8643;DHT22;4359;49.358;11.256;2023-11-18T15:05:42;6.20;99.90
8643;DHT22;4359;49.358;11.256;2023-11-18T15:08:09;6.20;99.90
8643;DHT22;4359;49.358;11.256;2023-11-18T15:10:35;6.10;99.90
8643;DHT22;4359;49.358;11.256;2023-11-18T15:13:02;6.10;99.90
8643;DHT22;4359;49.358;11.256;2023-11-18T15:15:28;6.10;99.90
8643;DHT22;4359;49.358;11.256;2023-11-18T15:17:57;6.10;99.90
8643;DHT22;4359;49.358;11.256;2023-11-18T15:20:24;6.10;99.90
8643;DHT22;4359;49.358;11.256;2023-11-18T15:22:50;6.00;99.90
8643;DHT22;4359;49.358;11.256;2023-11-18T15:25:16;6.00;99.90
8643;DHT22;4359;49.358;11.256;2023-11-18T15:27:43;5.90;99.90
8643;DHT22;4359;49.358;11.256;2023-11-18T15:30:09;5.90;99.90
8643;DHT22;4359;49.358;11.256;2023-11-18T15:32:39;5.90;99.90
8643;DHT22;4359;49.358;11.256;2023-11-18T15:35:05;5.90;99.90
8643;DHT22;4359;49.358;11.256;2023-11-18T15:37:34;5.90;99.90
8643;DHT22;4359;49.358;11.256;2023-11-18T15:40:00;5.90;99.90
8643;DHT22;4359;49.358;11.256;2023-11-18T15:42:27;5.90;99.90
8643;DHT22;4359;49.358;11.256;2023-11-18T15:44:53;5.80;99.90
8643;DHT22;4359;49.358;11.256;2023-11-18T15:47:19;5.80;99.90
8643;DHT22;4359;49.358;11.256;2023-11-18T15:49:45;5.80;99.90
8643;DHT22;4359;49.358;11.256;2023-11-18T15:52:10;5.80;99.90
8643;DHT22;4359;49.358;11.256;2023-11-18T15:54:37;5.70;99.90
8643;DHT22;4359;49.358;11.256;2023-11-18T15:57:03;5.70;99.90
8643;DHT22;4359;49.358;11.256;2023-11-18T15:59:29;5.70;99.90
8643;DHT22;4359;49.358;11.256;2023-11-18T16:01:54;5.60;99.90
8643;DHT22;4359;49.358;11.256;2023-11-18T16:04:20;5.50;99.90
8643;DHT22;4359;49.358;11.256;2023-11-18T16:06:46;5.50;99.90
8643;DHT22;4359;49.358;11.256;2023-11-18T16:09:11;5.50;99.90
8643;DHT22;4359;49.358;11.256;2023-11-18T16:11:37;5.50;99.90
8643;DHT22;4359;49.358;11.256;2023-11-18T16:14:02;5.40;99.90
8643;DHT22;4359;49.358;11.256;2023-11-18T16:16:28;5.40;99.90
8643;DHT22;4359;49.358;11.256;2023-11-18T16:18:53;5.40;99.90
8643;DHT22;4359;49.358;11.256;2023-11-18T16:21:20;5.50;99.90
8643;DHT22;4359;49.358;11.256;2023-11-18T16:23:47;5.40;99.90